Time;durP1;ratioP1;P1;durP2;ratioP2;P2;SDS_P1;SDS_P2;PMS_P1;PMS_P2;Temp;Humidity;BMP_temperature;BMP_pressure;BME280_temperature;BME280_humidity;BME280_pressure;Samples;Min_cycle;Max_cycle;Signal;HPM_P1;HPM_P2
2021/09/24 00:00:31;;;;;;;4.32;2.85;;;14.60;99.90;;;;;;2081477;28;20487;-68
2021/09/24 00:01:31;;;;;;;4.72;2.90;;;14.60;99.90;;;;;;2080964;28;20437;-68
2021/09/24 00:02:32;;;;;;;5.57;2.70;;;14.60;99.90;;;;;;2080847;28;20101;-68
2021/09/24 00:03:33;;;;;;;6.60;2.97;;;14.60;99.90;;;;;;2080726;28;20033;-69
2021/09/24 00:04:36;;;;;;;4.13;2.28;;;14.60;99.90;;;;;;2080047;28;20071;-68
2021/09/24 00:05:37;;;;;;;3.45;2.60;;;14.60;99.90;;;;;;2081740;28;20033;-68
2021/09/24 00:06:39;;;;;;;5.30;2.10;;;14.60;99.90;;;;;;2081488;28;20028;-69
2021/09/24 00:07:40;;;;;;;4.10;2.08;;;14.60;99.90;;;;;;2081484;28;20037;-69
2021/09/24 00:08:41;;;;;;;3.50;2.10;;;14.50;99.90;;;;;;2081676;28;20025;-69
2021/09/24 00:09:41;;;;;;;4.93;1.80;;;14.50;99.90;;;;;;2081355;28;20091;-69
2021/09/24 00:10:42;;;;;;;5.35;2.10;;;14.50;99.90;;;;;;2081311;28;20486;-68
2021/09/24 00:11:43;;;;;;;3.95;1.90;;;14.40;99.90;;;;;;2081343;28;20124;-68
2021/09/24 00:12:43;;;;;;;4.65;1.90;;;14.50;99.90;;;;;;2081564;28;20073;-69
2021/09/24 00:13:44;;;;;;;4.57;1.85;;;14.40;99.90;;;;;;2080666;28;20056;-68
2021/09/24 00:14:45;;;;;;;4.97;1.85;;;14.40;99.90;;;;;;2080979;28;20146;-68
2021/09/24 00:15:45;;;;;;;4.60;1.77;;;14.40;99.90;;;;;;2081048;28;20033;-68
2021/09/24 00:16:46;;;;;;;3.67;1.88;;;14.40;99.90;;;;;;2082024;28;20025;-68
2021/09/24 00:17:47;;;;;;;4.65;1.80;;;14.40;99.90;;;;;;2081945;28;20036;-68
2021/09/24 00:18:48;;;;;;;3.75;1.77;;;14.30;99.90;;;;;;2081896;28;20740;-69
2021/09/24 00:19:48;;;;;;;3.70;1.92;;;14.30;99.90;;;;;;2081100;28;20120;-68
2021/09/24 00:20:49;;;;;;;5.30;1.95;;;14.30;99.90;;;;;;2080899;28;20481;-68
2021/09/24 00:21:49;;;;;;;4.80;2.15;;;14.30;99.90;;;;;;2081616;28;20013;-68
2021/09/24 00:22:50;;;;;;;5.70;1.83;;;14.30;99.90;;;;;;2081685;28;20025;-69
2021/09/24 00:23:51;;;;;;;5.47;2.08;;;14.30;99.90;;;;;;2080477;28;20051;-67
2021/09/24 00:24:51;;;;;;;3.55;1.90;;;14.20;99.90;;;;;;2081111;28;20030;-68
2021/09/24 00:25:52;;;;;;;5.55;1.90;;;14.20;99.90;;;;;;2081520;28;20537;-69
2021/09/24 00:26:52;;;;;;;4.43;1.80;;;14.20;99.90;;;;;;2080738;28;20404;-68
2021/09/24 00:27:53;;;;;;;5.22;1.65;;;14.20;99.90;;;;;;2080652;28;20029;-66
2021/09/24 00:28:54;;;;;;;4.38;1.80;;;14.20;99.90;;;;;;2080675;28;20034;-66
2021/09/24 00:29:54;;;;;;;5.55;1.80;;;14.20;99.90;;;;;;2080558;28;20065;-66
2021/09/24 00:30:55;;;;;;;5.07;1.88;;;14.10;99.90;;;;;;2081028;28;20029;-65
2021/09/24 00:31:55;;;;;;;4.60;1.70;;;14.10;99.90;;;;;;2081172;28;20042;-68
2021/09/24 00:32:56;;;;;;;5.30;1.80;;;14.10;99.90;;;;;;2081302;28;20091;-67
2021/09/24 00:33:56;;;;;;;6.30;1.95;;;14.10;99.90;;;;;;2076242;28;20022;-66
2021/09/24 00:34:57;;;;;;;5.68;2.08;;;14.10;99.90;;;;;;2085814;28;20056;-66
2021/09/24 00:35:58;;;;;;;5.20;1.80;;;14.10;99.90;;;;;;2081359;28;20763;-67
2021/09/24 00:36:59;;;;;;;6.75;1.90;;;14.00;99.90;;;;;;2081595;28;20029;-68
2021/09/24 00:37:59;;;;;;;6.13;2.05;;;14.00;99.90;;;;;;2085060;28;20087;-67
2021/09/24 00:39:00;;;;;;;6.10;1.80;;;14.00;99.90;;;;;;2083209;28;20061;-67
2021/09/24 00:40:00;;;;;;;5.22;1.98;;;14.00;99.90;;;;;;2089266;28;20029;-68
2021/09/24 00:41:01;;;;;;;4.70;1.80;;;13.90;99.90;;;;;;2097086;28;20036;-68
2021/09/24 00:42:02;;;;;;;5.80;1.73;;;13.90;99.90;;;;;;2097265;28;20107;-67
2021/09/24 00:43:03;;;;;;;5.15;1.90;;;13.90;99.90;;;;;;2089405;28;20068;-67
2021/09/24 00:44:05;;;;;;;4.88;1.77;;;13.90;99.90;;;;;;2088434;28;20804;-67
2021/09/24 00:45:06;;;;;;;7.18;1.85;;;13.90;99.90;;;;;;2088809;28;20039;-66
2021/09/24 00:46:07;;;;;;;6.10;2.17;;;13.90;99.90;;;;;;2080635;28;20033;-67
2021/09/24 00:47:08;;;;;;;6.80;2.20;;;13.90;99.90;;;;;;2088768;28;20029;-67
2021/09/24 00:48:08;;;;;;;4.88;1.90;;;13.80;99.90;;;;;;2089088;28;20079;-67
2021/09/24 00:49:10;;;;;;;8.05;2.00;;;13.80;99.90;;;;;;2088842;28;20497;-68
2021/09/24 00:50:10;;;;;;;5.82;1.95;;;13.80;99.90;;;;;;2089672;28;20035;-68
2021/09/24 00:51:11;;;;;;;5.20;2.00;;;13.80;99.90;;;;;;2089044;28;20037;-67
2021/09/24 00:52:12;;;;;;;7.45;2.00;;;13.80;99.90;;;;;;2088785;28;20086;-67
2021/09/24 00:53:12;;;;;;;7.32;2.13;;;13.80;99.90;;;;;;2089278;28;20029;-67
2021/09/24 00:54:13;;;;;;;11.07;2.20;;;13.80;99.90;;;;;;2088868;28;20037;-68
2021/09/24 00:55:14;;;;;;;5.32;2.10;;;13.80;99.90;;;;;;2089389;28;20048;-67
2021/09/24 00:56:16;;;;;;;4.88;2.20;;;13.80;99.90;;;;;;2088740;28;20043;-67
2021/09/24 00:57:18;;;;;;;6.25;2.25;;;13.80;99.90;;;;;;2081092;28;20414;-67
2021/09/24 00:58:19;;;;;;;10.05;2.53;;;13.80;99.90;;;;;;2089055;28;20087;-67
2021/09/24 00:59:20;;;;;;;7.50;2.28;;;13.80;99.90;;;;;;2089315;28;20025;-67
2021/09/24 01:00:23;;;;;;;6.60;2.25;;;13.80;99.90;;;;;;2089141;28;20111;-67
2021/09/24 01:01:24;;;;;;;6.90;2.25;;;13.80;99.90;;;;;;2097178;28;20847;-67
2021/09/24 01:02:24;;;;;;;5.95;2.13;;;13.90;99.90;;;;;;2097001;28;20029;-66
2021/09/24 01:03:25;;;;;;;7.95;2.50;;;13.90;99.90;;;;;;2089270;28;20033;-66
2021/09/24 01:04:26;;;;;;;6.70;2.15;;;13.90;99.90;;;;;;2088762;28;20024;-67
2021/09/24 01:05:27;;;;;;;7.65;2.35;;;14.00;99.90;;;;;;2089302;28;20040;-66
2021/09/24 01:06:28;;;;;;;6.85;2.20;;;14.00;99.90;;;;;;2088450;28;20025;-66
2021/09/24 01:07:29;;;;;;;5.28;2.10;;;14.00;99.90;;;;;;2088611;28;20557;-67
2021/09/24 01:08:31;;;;;;;6.70;2.10;;;14.10;99.90;;;;;;2089486;28;20532;-67
2021/09/24 01:09:33;;;;;;;8.57;2.33;;;14.10;99.90;;;;;;2089359;28;20024;-67
2021/09/24 01:10:34;;;;;;;4.78;2.10;;;14.10;99.90;;;;;;2089209;28;20032;-66
2021/09/24 01:11:37;;;;;;;7.00;2.10;;;14.10;99.90;;;;;;2089085;28;20207;-66
2021/09/24 01:12:38;;;;;;;6.30;2.50;;;14.10;99.90;;;;;;2089250;28;20036;-68
2021/09/24 01:13:39;;;;;;;8.65;2.40;;;14.20;99.90;;;;;;2089205;28;20040;-67
2021/09/24 01:14:39;;;;;;;6.65;2.40;;;14.20;99.90;;;;;;2096017;28;20032;-67
2021/09/24 01:15:40;;;;;;;7.07;2.28;;;14.30;99.90;;;;;;2097175;28;20079;-67
2021/09/24 01:16:41;;;;;;;7.18;2.30;;;14.30;99.90;;;;;;2089553;28;20039;-66
2021/09/24 01:17:42;;;;;;;8.70;2.40;;;14.30;99.90;;;;;;2089344;28;20528;-67
2021/09/24 01:18:42;;;;;;;10.88;2.65;;;14.40;99.90;;;;;;2089597;28;20021;-66
2021/09/24 01:19:43;;;;;;;8.07;2.55;;;14.40;99.90;;;;;;2089702;28;20036;-67
2021/09/24 01:20:43;;;;;;;6.95;2.47;;;14.40;99.90;;;;;;2088970;28;20606;-67
2021/09/24 01:21:44;;;;;;;6.65;2.30;;;14.40;99.90;;;;;;2088800;28;20479;-67
2021/09/24 01:22:47;;;;;;;11.60;2.88;;;14.40;99.90;;;;;;2089160;28;20071;-66
2021/09/24 01:23:47;;;;;;;6.90;2.50;;;14.40;99.90;;;;;;2096682;28;20021;-67
2021/09/24 01:24:48;;;;;;;9.20;3.00;;;14.40;99.90;;;;;;2096154;28;20632;-67
2021/09/24 01:25:49;;;;;;;7.75;2.90;;;14.40;99.90;;;;;;2089400;28;20029;-67
2021/09/24 01:26:55;;;;;;;6.63;2.97;;;14.40;99.90;;;;;;2089061;28;20021;-67
2021/09/24 01:27:56;;;;;;;7.28;2.85;;;14.40;99.90;;;;;;2088842;28;20503;-67
2021/09/24 01:28:58;;;;;;;7.20;2.67;;;14.40;99.90;;;;;;2088956;28;20029;-67
2021/09/24 01:29:59;;;;;;;8.18;2.80;;;14.40;99.90;;;;;;2089033;28;20048;-66
2021/09/24 01:31:00;;;;;;;7.93;2.85;;;14.40;99.90;;;;;;2094103;28;20036;-67
2021/09/24 01:32:00;;;;;;;10.02;3.05;;;14.40;99.90;;;;;;2097157;28;20072;-67
2021/09/24 01:33:01;;;;;;;6.78;2.90;;;14.40;99.90;;;;;;2096603;28;20025;-67
2021/09/24 01:34:02;;;;;;;6.25;2.92;;;14.40;99.90;;;;;;2095949;28;20507;-67
2021/09/24 01:35:05;;;;;;;10.50;3.13;;;14.30;99.90;;;;;;2097438;28;20086;-67
2021/09/24 01:36:06;;;;;;;8.40;2.90;;;14.40;99.90;;;;;;2096251;28;20040;-66
2021/09/24 01:37:07;;;;;;;7.50;2.75;;;14.30;99.90;;;;;;2096990;28;20510;-67
2021/09/24 01:38:07;;;;;;;7.95;3.00;;;14.30;99.90;;;;;;2097254;28;20115;-66
2021/09/24 01:39:10;;;;;;;7.93;3.20;;;14.30;99.90;;;;;;2097097;28;20036;-67
2021/09/24 01:40:13;;;;;;;8.07;3.03;;;14.30;99.90;;;;;;2096956;28;20028;-67
2021/09/24 01:41:14;;;;;;;7.65;3.28;;;14.30;99.90;;;;;;2097093;28;20062;-67
2021/09/24 01:42:15;;;;;;;8.88;2.90;;;14.30;99.90;;;;;;2096880;28;20054;-67
2021/09/24 01:43:15;;;;;;;8.82;3.30;;;14.30;99.90;;;;;;2096769;28;20032;-67
2021/09/24 01:44:16;;;;;;;6.07;2.70;;;14.30;99.90;;;;;;2096171;28;20020;-67
2021/09/24 01:45:17;;;;;;;9.27;3.03;;;14.30;99.90;;;;;;2097156;28;20024;-67
2021/09/24 01:46:17;;;;;;;6.88;3.00;;;14.30;99.90;;;;;;2096499;28;20094;-67
2021/09/24 01:47:18;;;;;;;12.57;3.38;;;14.30;99.90;;;;;;2096733;28;20173;-67
2021/09/24 01:48:18;;;;;;;9.18;3.50;;;14.20;99.90;;;;;;2096562;28;20056;-67
2021/09/24 01:49:19;;;;;;;9.75;3.40;;;14.20;99.90;;;;;;2096477;28;20040;-67
2021/09/24 01:50:20;;;;;;;7.35;3.22;;;14.20;99.90;;;;;;2096994;28;20025;-67
2021/09/24 01:51:20;;;;;;;6.90;3.30;;;14.20;99.90;;;;;;2097059;28;20054;-68
2021/09/24 01:52:21;;;;;;;7.47;3.50;;;14.20;99.90;;;;;;2097130;28;20028;-67
2021/09/24 01:53:22;;;;;;;8.90;3.55;;;14.20;99.90;;;;;;2096890;28;20028;-67
2021/09/24 01:54:22;;;;;;;9.40;3.30;;;14.20;99.90;;;;;;2095662;28;20082;-67
2021/09/24 01:55:23;;;;;;;7.30;3.20;;;14.20;99.90;;;;;;2096494;28;20210;-67
2021/09/24 01:56:24;;;;;;;8.50;3.40;;;14.20;99.90;;;;;;2096756;28;20046;-67
2021/09/24 01:57:24;;;;;;;9.50;3.67;;;14.20;99.90;;;;;;2097149;28;20099;-65
2021/09/24 01:58:25;;;;;;;8.18;3.65;;;14.20;99.90;;;;;;2097052;28;20466;-66
2021/09/24 01:59:26;;;;;;;11.02;3.90;;;14.10;99.90;;;;;;2096880;28;20115;-67
2021/09/24 02:00:26;;;;;;;8.00;3.53;;;14.10;99.90;;;;;;2096930;28;20643;-68
2021/09/24 02:01:27;;;;;;;6.97;3.13;;;14.10;99.90;;;;;;2097182;28;20020;-67
2021/09/24 02:02:27;;;;;;;9.07;3.70;;;14.10;99.90;;;;;;2096986;28;20100;-66
2021/09/24 02:03:28;;;;;;;8.20;3.47;;;14.20;99.90;;;;;;2096761;28;20024;-67
2021/09/24 02:04:29;;;;;;;9.68;3.70;;;14.10;99.90;;;;;;2096009;28;20032;-66
2021/09/24 02:05:29;;;;;;;8.60;3.30;;;14.10;99.90;;;;;;2096429;28;20070;-67
2021/09/24 02:06:31;;;;;;;9.75;3.80;;;14.20;99.90;;;;;;2096487;28;20363;-66
2021/09/24 02:07:31;;;;;;;8.18;3.67;;;14.20;99.90;;;;;;2096231;28;20858;-66
2021/09/24 02:08:32;;;;;;;8.05;3.60;;;14.20;99.90;;;;;;2096548;28;20092;-65
2021/09/24 02:09:33;;;;;;;7.55;4.00;;;14.20;99.90;;;;;;2096866;28;20497;-66
2021/09/24 02:10:34;;;;;;;8.52;3.40;;;14.20;99.90;;;;;;2096736;28;20058;-65
2021/09/24 02:11:35;;;;;;;10.77;4.25;;;14.20;99.90;;;;;;2096230;28;20194;-66
2021/09/24 02:12:36;;;;;;;9.35;4.00;;;14.20;99.90;;;;;;2096254;28;20123;-65
2021/09/24 02:13:38;;;;;;;9.50;4.13;;;14.20;99.90;;;;;;2096677;28;20067;-66
2021/09/24 02:14:39;;;;;;;10.57;4.05;;;14.20;99.90;;;;;;2095493;28;20036;-66
2021/09/24 02:15:39;;;;;;;10.43;4.18;;;14.20;99.90;;;;;;2096654;28;20077;-66
2021/09/24 02:16:40;;;;;;;9.55;4.20;;;14.20;99.90;;;;;;2097205;28;20044;-65
2021/09/24 02:17:42;;;;;;;10.77;4.30;;;14.20;99.90;;;;;;2097522;28;20078;-66
2021/09/24 02:18:42;;;;;;;10.52;4.07;;;14.20;99.90;;;;;;2097384;28;20025;-66
2021/09/24 02:19:43;;;;;;;9.40;4.00;;;14.20;99.90;;;;;;2096705;28;20028;-66
2021/09/24 02:20:43;;;;;;;12.55;4.63;;;14.20;99.90;;;;;;2096870;28;20067;-65
2021/09/24 02:21:44;;;;;;;12.05;4.57;;;14.20;99.90;;;;;;2097252;28;20075;-66
2021/09/24 02:22:45;;;;;;;10.68;4.20;;;14.20;99.90;;;;;;2097091;28;20036;-66
2021/09/24 02:23:45;;;;;;;8.35;4.25;;;14.20;99.90;;;;;;2097518;28;20533;-66
2021/09/24 02:24:46;;;;;;;13.30;4.22;;;14.20;99.90;;;;;;2096274;28;20067;-66
2021/09/24 02:25:47;;;;;;;9.45;4.38;;;14.20;99.90;;;;;;2096182;28;20098;-66
2021/09/24 02:26:47;;;;;;;15.10;4.63;;;14.20;99.90;;;;;;2096124;28;20039;-66
2021/09/24 02:27:48;;;;;;;9.13;4.40;;;14.20;99.90;;;;;;2096801;28;20028;-66
2021/09/24 02:28:49;;;;;;;10.82;4.10;;;14.20;99.90;;;;;;2097045;28;20099;-65
2021/09/24 02:29:49;;;;;;;8.77;4.00;;;14.10;99.90;;;;;;2096666;28;20029;-66
2021/09/24 02:30:50;;;;;;;9.38;4.20;;;14.10;99.90;;;;;;2096918;28;20075;-66
2021/09/24 02:31:51;;;;;;;10.57;4.38;;;14.10;99.90;;;;;;2094275;28;20021;-66
2021/09/24 02:32:51;;;;;;;9.52;4.25;;;14.00;99.90;;;;;;2088335;28;20041;-66
2021/09/24 02:33:52;;;;;;;10.02;4.00;;;14.10;99.90;;;;;;2088453;28;20059;-67
2021/09/24 02:34:53;;;;;;;10.32;4.22;;;14.00;99.90;;;;;;2087954;28;20502;-66
2021/09/24 02:35:53;;;;;;;11.10;4.20;;;14.00;99.90;;;;;;2088448;28;20474;-66
2021/09/24 02:36:54;;;;;;;11.02;3.97;;;14.10;99.90;;;;;;2088500;28;20044;-65
2021/09/24 02:37:55;;;;;;;8.77;3.72;;;14.00;99.90;;;;;;2088843;28;20037;-65
2021/09/24 02:38:55;;;;;;;9.95;3.92;;;14.10;99.90;;;;;;2088775;28;20041;-66
2021/09/24 02:39:56;;;;;;;10.02;4.45;;;14.10;99.90;;;;;;2087486;28;20140;-66
2021/09/24 02:40:56;;;;;;;11.10;4.40;;;14.10;99.90;;;;;;2087767;28;20501;-66
2021/09/24 02:41:57;;;;;;;10.93;4.18;;;14.10;99.90;;;;;;2088705;28;20036;-65
2021/09/24 02:42:58;;;;;;;11.65;4.40;;;14.10;99.90;;;;;;2088402;28;20048;-66
2021/09/24 02:43:59;;;;;;;12.25;4.30;;;14.10;99.90;;;;;;2087171;28;20033;-65
2021/09/24 02:44:59;;;;;;;13.13;4.00;;;14.10;99.90;;;;;;2079887;28;20029;-66
2021/09/24 02:46:00;;;;;;;11.60;4.10;;;14.10;99.90;;;;;;2087969;28;20025;-65
2021/09/24 02:47:01;;;;;;;10.55;3.63;;;14.10;99.90;;;;;;2088686;28;20037;-65
2021/09/24 02:48:01;;;;;;;10.98;3.90;;;14.10;99.90;;;;;;2089398;28;20036;-67
2021/09/24 02:49:02;;;;;;;9.68;3.58;;;14.20;99.90;;;;;;2090274;28;20036;-66
2021/09/24 02:50:07;;;;;;;14.82;4.72;;;14.20;99.90;;;;;;2089251;28;20025;-65
2021/09/24 02:51:08;;;;;;;11.85;3.90;;;14.10;99.90;;;;;;2089686;28;20037;-66
2021/09/24 02:52:09;;;;;;;14.38;3.78;;;14.10;99.90;;;;;;2081463;28;20045;-66
2021/09/24 02:53:09;;;;;;;9.00;3.55;;;14.10;99.90;;;;;;2089484;28;20055;-66
2021/09/24 02:54:10;;;;;;;10.40;4.03;;;14.10;99.90;;;;;;2089297;28;20037;-66
2021/09/24 02:55:11;;;;;;;11.98;3.85;;;14.10;99.90;;;;;;2090031;28;20037;-67
2021/09/24 02:56:11;;;;;;;11.63;3.67;;;14.10;99.90;;;;;;2090180;28;20028;-67
2021/09/24 02:57:12;;;;;;;11.63;4.07;;;14.20;99.90;;;;;;2089501;28;20037;-66
2021/09/24 02:58:12;;;;;;;7.97;3.72;;;14.10;99.90;;;;;;2089687;28;20044;-66
2021/09/24 02:59:13;;;;;;;12.27;3.78;;;14.10;99.90;;;;;;2097698;28;20118;-65
2021/09/24 03:00:14;;;;;;;7.50;3.42;;;14.20;99.90;;;;;;2081225;28;20091;-66
2021/09/24 03:01:15;;;;;;;8.25;3.60;;;14.10;99.90;;;;;;2089389;28;20517;-66
2021/09/24 03:02:15;;;;;;;13.23;4.18;;;14.20;99.90;;;;;;2090066;28;20021;-65
2021/09/24 03:03:16;;;;;;;16.10;4.53;;;14.10;99.90;;;;;;2089959;28;20501;-66
2021/09/24 03:04:17;;;;;;;11.43;4.30;;;14.20;99.90;;;;;;2089179;28;20025;-65
2021/09/24 03:05:17;;;;;;;12.52;4.20;;;14.10;99.90;;;;;;2090049;28;20488;-65
2021/09/24 03:06:18;;;;;;;11.57;4.20;;;14.20;99.90;;;;;;2090082;28;20470;-65
2021/09/24 03:07:18;;;;;;;10.25;3.95;;;14.20;99.90;;;;;;2089930;28;20028;-65
2021/09/24 03:08:19;;;;;;;13.23;4.70;;;14.10;99.90;;;;;;2090005;28;20053;-65
2021/09/24 03:09:21;;;;;;;11.00;4.22;;;14.10;99.90;;;;;;2089828;28;20031;-65
2021/09/24 03:10:21;;;;;;;13.25;4.47;;;14.10;99.90;;;;;;2089850;28;20056;-65
2021/09/24 03:11:22;;;;;;;9.15;4.20;;;14.00;99.90;;;;;;2089228;28;20028;-66
2021/09/24 03:12:22;;;;;;;9.40;4.15;;;14.00;99.90;;;;;;2089371;28;20087;-66
2021/09/24 03:13:23;;;;;;;10.93;4.70;;;14.00;99.90;;;;;;2081111;28;20025;-66
2021/09/24 03:14:24;;;;;;;10.50;4.28;;;14.00;99.90;;;;;;2072042;28;20041;-67
2021/09/24 03:15:24;;;;;;;11.85;4.60;;;13.90;99.90;;;;;;2089360;28;20048;-67
2021/09/24 03:16:25;;;;;;;11.38;4.88;;;13.90;99.90;;;;;;2090105;28;20028;-65
2021/09/24 03:17:26;;;;;;;9.88;4.10;;;13.90;99.90;;;;;;2094518;28;20047;-66
2021/09/24 03:18:26;;;;;;;12.23;4.60;;;13.90;99.90;;;;;;2098264;28;20151;-68
2021/09/24 03:19:27;;;;;;;9.35;4.30;;;13.80;99.90;;;;;;2097507;28;20032;-66
2021/09/24 03:20:28;;;;;;;11.18;5.00;;;13.80;99.90;;;;;;2097780;28;20024;-65
2021/09/24 03:21:29;;;;;;;13.45;5.32;;;13.80;99.90;;;;;;2098096;28;20107;-66
2021/09/24 03:22:30;;;;;;;18.27;5.10;;;13.80;99.90;;;;;;2097266;28;20032;-65
2021/09/24 03:23:30;;;;;;;18.05;5.28;;;13.80;99.90;;;;;;2097614;28;20035;-67
2021/09/24 03:24:31;;;;;;;12.93;4.80;;;13.80;99.90;;;;;;2097418;28;20028;-65
2021/09/24 03:25:32;;;;;;;13.13;5.00;;;13.80;99.90;;;;;;2098268;28;20024;-66
2021/09/24 03:26:32;;;;;;;13.25;4.90;;;13.80;99.90;;;;;;2098128;28;20068;-66
2021/09/24 03:27:34;;;;;;;13.68;5.00;;;13.70;99.90;;;;;;2098308;28;20029;-67
2021/09/24 03:28:36;;;;;;;13.50;5.15;;;13.80;99.90;;;;;;2098197;28;20044;-66
2021/09/24 03:29:37;;;;;;;12.32;4.93;;;13.80;99.90;;;;;;2097963;28;20029;-67
2021/09/24 03:30:38;;;;;;;11.18;4.75;;;13.80;99.90;;;;;;2098171;28;20052;-67
2021/09/24 03:31:40;;;;;;;13.23;4.85;;;13.70;99.90;;;;;;2098456;28;20393;-66
2021/09/24 03:32:42;;;;;;;14.07;4.80;;;13.70;99.90;;;;;;2098198;28;20013;-67
2021/09/24 03:33:43;;;;;;;12.57;5.15;;;13.70;99.90;;;;;;2098320;28;20028;-66
2021/09/24 03:34:43;;;;;;;15.70;5.30;;;13.70;99.90;;;;;;2097522;28;20111;-66
2021/09/24 03:35:44;;;;;;;10.93;4.75;;;13.70;99.90;;;;;;2097483;28;20056;-66
2021/09/24 03:36:45;;;;;;;13.18;5.30;;;13.70;99.90;;;;;;2097433;28;20030;-65
2021/09/24 03:37:45;;;;;;;14.25;4.80;;;13.70;99.90;;;;;;2097765;28;20024;-66
2021/09/24 03:38:46;;;;;;;13.75;5.20;;;13.80;99.90;;;;;;2097743;28;20793;-66
2021/09/24 03:39:47;;;;;;;15.75;5.47;;;13.80;99.90;;;;;;2097906;28;20527;-67
2021/09/24 03:40:47;;;;;;;12.50;5.18;;;13.80;99.90;;;;;;2098054;28;20023;-67
2021/09/24 03:41:48;;;;;;;14.10;5.25;;;13.80;99.90;;;;;;2098428;28;20027;-71
2021/09/24 03:42:49;;;;;;;13.07;4.93;;;13.80;99.90;;;;;;2097833;28;20512;-65
2021/09/24 03:43:49;;;;;;;14.18;5.15;;;13.80;99.90;;;;;;2098278;28;20070;-66
2021/09/24 03:44:50;;;;;;;14.23;5.53;;;13.80;99.90;;;;;;2097341;28;20033;-67
2021/09/24 03:45:51;;;;;;;17.60;5.80;;;13.80;99.90;;;;;;2097504;28;20051;-65
2021/09/24 03:46:51;;;;;;;13.75;5.72;;;13.80;99.90;;;;;;2097513;28;20032;-67
2021/09/24 03:47:52;;;;;;;13.23;5.00;;;13.80;99.90;;;;;;2097328;28;20123;-66
2021/09/24 03:48:52;;;;;;;17.10;6.05;;;13.80;99.90;;;;;;2097537;28;20029;-67
2021/09/24 03:49:53;;;;;;;16.88;6.20;;;13.80;99.90;;;;;;2097960;28;20063;-67
2021/09/24 03:50:53;;;;;;;11.98;5.68;;;13.80;99.90;;;;;;2097180;28;20117;-67
2021/09/24 03:51:55;;;;;;;9.40;5.15;;;13.80;99.90;;;;;;2088883;28;20574;-66
2021/09/24 03:52:55;;;;;;;9.77;4.90;;;13.80;99.90;;;;;;2097233;28;20082;-66
2021/09/24 03:53:56;;;;;;;10.88;5.55;;;13.80;99.90;;;;;;2098069;28;20086;-67
2021/09/24 03:54:57;;;;;;;14.77;6.07;;;13.70;99.90;;;;;;2097253;28;20081;-67
2021/09/24 03:55:57;;;;;;;12.02;5.70;;;13.70;99.90;;;;;;2098083;28;20032;-65
2021/09/24 03:56:58;;;;;;;12.18;5.32;;;13.70;99.90;;;;;;2098086;28;20155;-66
2021/09/24 03:57:59;;;;;;;14.90;6.20;;;13.70;99.90;;;;;;2097818;28;20036;-65
2021/09/24 03:58:59;;;;;;;15.48;5.93;;;13.60;99.90;;;;;;2097599;28;20111;-65
2021/09/24 04:00:00;;;;;;;12.65;5.80;;;13.60;99.90;;;;;;2097940;28;20111;-66
2021/09/24 04:01:00;;;;;;;14.68;5.88;;;13.60;99.90;;;;;;2097422;28;20061;-65
2021/09/24 04:02:01;;;;;;;13.55;6.03;;;13.60;99.90;;;;;;2097397;28;20433;-65
2021/09/24 04:03:02;;;;;;;17.75;5.70;;;13.50;99.90;;;;;;2097814;28;20386;-66
2021/09/24 04:04:02;;;;;;;18.60;6.28;;;13.50;99.90;;;;;;2097535;28;20082;-66
2021/09/24 04:05:03;;;;;;;17.60;6.38;;;13.50;99.90;;;;;;2097436;28;20108;-66
2021/09/24 04:06:04;;;;;;;13.43;5.88;;;13.50;99.90;;;;;;2097197;28;20520;-67
2021/09/24 04:07:05;;;;;;;15.38;6.07;;;13.50;99.90;;;;;;2088934;28;20488;-66
2021/09/24 04:08:06;;;;;;;12.43;5.90;;;13.50;99.90;;;;;;2097902;28;20029;-66
2021/09/24 04:09:07;;;;;;;15.13;6.00;;;13.40;99.90;;;;;;2098543;28;20407;-66
2021/09/24 04:10:07;;;;;;;15.88;5.90;;;13.40;99.90;;;;;;2097953;28;20024;-65
2021/09/24 04:11:08;;;;;;;12.63;5.53;;;13.40;99.90;;;;;;2097781;28;20036;-68
2021/09/24 04:12:09;;;;;;;13.52;5.70;;;13.40;99.90;;;;;;2097768;28;20044;-65
2021/09/24 04:13:10;;;;;;;14.60;5.78;;;13.40;99.90;;;;;;2097748;28;20024;-65
2021/09/24 04:14:11;;;;;;;14.30;6.07;;;13.40;99.90;;;;;;2097026;28;20067;-66
2021/09/24 04:15:11;;;;;;;15.20;5.60;;;13.40;99.90;;;;;;2097975;28;20389;-65
2021/09/24 04:16:12;;;;;;;15.55;5.85;;;13.40;99.90;;;;;;2097818;28;20032;-65
2021/09/24 04:17:13;;;;;;;14.35;5.57;;;13.40;99.90;;;;;;2097888;28;20043;-67
2021/09/24 04:18:13;;;;;;;15.15;5.60;;;13.40;99.90;;;;;;2097868;28;20032;-68
2021/09/24 04:19:14;;;;;;;15.35;5.75;;;13.50;99.90;;;;;;2097711;28;20025;-66
2021/09/24 04:20:15;;;;;;;12.57;6.10;;;13.40;99.90;;;;;;2097804;28;20397;-66
2021/09/24 04:21:15;;;;;;;20.50;6.20;;;13.40;99.90;;;;;;2097707;28;20477;-66
2021/09/24 04:22:16;;;;;;;16.38;6.05;;;13.40;99.90;;;;;;2097739;28;20028;-66
2021/09/24 04:23:17;;;;;;;16.42;6.00;;;13.40;99.90;;;;;;2097761;28;20860;-68
2021/09/24 04:24:17;;;;;;;13.48;5.65;;;13.40;99.90;;;;;;2096996;28;20020;-67
2021/09/24 04:25:18;;;;;;;18.58;6.25;;;13.30;99.90;;;;;;2097941;28;20106;-67
2021/09/24 04:26:18;;;;;;;14.85;6.10;;;13.30;99.90;;;;;;2098163;28;20382;-67
2021/09/24 04:27:19;;;;;;;14.35;6.00;;;13.30;99.90;;;;;;2098125;28;20476;-65
2021/09/24 04:28:20;;;;;;;17.33;5.90;;;13.30;99.90;;;;;;2086168;28;20025;-65
2021/09/24 04:29:21;;;;;;;14.30;5.75;;;13.30;99.90;;;;;;2086330;28;20398;-67
2021/09/24 04:30:21;;;;;;;17.77;6.15;;;13.30;99.90;;;;;;2089423;28;20151;-67
2021/09/24 04:31:23;;;;;;;15.05;5.80;;;13.30;99.90;;;;;;2088931;28;20025;-66
2021/09/24 04:32:24;;;;;;;18.33;5.65;;;13.30;99.90;;;;;;2089087;28;20037;-66
2021/09/24 04:33:24;;;;;;;15.80;5.57;;;13.30;99.90;;;;;;2088147;28;20024;-68
2021/09/24 04:34:25;;;;;;;20.35;6.13;;;13.30;99.90;;;;;;2087929;28;20347;-67
2021/09/24 04:35:26;;;;;;;14.63;5.57;;;13.30;99.90;;;;;;2089355;28;20029;-68
2021/09/24 04:36:26;;;;;;;11.02;5.13;;;13.30;99.90;;;;;;2089477;28;20025;-67
2021/09/24 04:37:27;;;;;;;11.35;5.55;;;13.30;99.90;;;;;;2089104;28;20059;-65
2021/09/24 04:38:28;;;;;;;11.90;5.40;;;13.30;99.90;;;;;;2088618;28;20032;-66
2021/09/24 04:39:29;;;;;;;17.90;5.70;;;13.30;99.90;;;;;;2088774;28;20400;-65
2021/09/24 04:40:33;;;;;;;13.80;5.55;;;13.30;99.90;;;;;;2089410;28;20118;-66
2021/09/24 04:41:36;;;;;;;16.08;5.82;;;13.30;99.90;;;;;;2089576;28;20025;-66
2021/09/24 04:42:37;;;;;;;14.43;5.82;;;13.20;99.90;;;;;;2089588;28;20029;-66
2021/09/24 04:43:38;;;;;;;14.30;5.50;;;13.20;99.90;;;;;;2089020;28;20479;-66
2021/09/24 04:44:40;;;;;;;12.23;4.97;;;13.20;99.90;;;;;;2088626;28;20019;-65
2021/09/24 04:45:40;;;;;;;13.10;5.03;;;13.20;99.90;;;;;;2089357;28;20013;-66
2021/09/24 04:46:41;;;;;;;19.48;5.50;;;13.20;99.90;;;;;;2089166;28;20032;-68
2021/09/24 04:47:42;;;;;;;15.15;5.60;;;13.20;99.90;;;;;;2089326;28;20028;-68
2021/09/24 04:48:42;;;;;;;14.02;5.47;;;13.10;99.90;;;;;;2089312;28;20381;-68
2021/09/24 04:49:43;;;;;;;15.05;5.55;;;13.10;99.90;;;;;;2096713;28;20513;-68
2021/09/24 04:50:43;;;;;;;17.55;5.53;;;13.10;99.90;;;;;;2096796;28;20033;-68
2021/09/24 04:51:44;;;;;;;13.68;6.10;;;13.10;99.90;;;;;;2089326;28;20029;-68
2021/09/24 04:52:45;;;;;;;14.75;5.60;;;13.10;99.90;;;;;;2088995;28;20041;-68
2021/09/24 04:53:45;;;;;;;10.75;5.07;;;13.10;99.90;;;;;;2088617;28;20025;-68
2021/09/24 04:54:46;;;;;;;14.98;5.60;;;13.00;99.90;;;;;;2087523;28;20068;-68
2021/09/24 04:55:47;;;;;;;10.65;5.57;;;13.00;99.90;;;;;;2089241;28;20129;-68
2021/09/24 04:56:48;;;;;;;19.70;5.88;;;13.00;99.90;;;;;;2089233;28;20037;-68
2021/09/24 04:57:48;;;;;;;11.60;5.13;;;13.00;99.90;;;;;;2096682;28;20111;-68
2021/09/24 04:58:49;;;;;;;16.70;5.50;;;13.00;99.90;;;;;;2096926;28;20038;-66
2021/09/24 04:59:49;;;;;;;17.83;5.00;;;12.90;99.90;;;;;;2089006;28;20060;-66
2021/09/24 05:00:50;;;;;;;12.73;5.00;;;12.90;99.90;;;;;;2089107;28;20503;-66
2021/09/24 05:01:51;;;;;;;15.20;4.70;;;13.00;99.90;;;;;;2089154;28;20021;-66
2021/09/24 05:02:51;;;;;;;12.90;4.57;;;12.90;99.90;;;;;;2089142;28;20033;-68
2021/09/24 05:03:52;;;;;;;12.90;4.78;;;12.90;99.90;;;;;;2089130;28;20498;-67
2021/09/24 05:04:52;;;;;;;16.48;4.90;;;13.00;99.90;;;;;;2088118;28;20738;-66
2021/09/24 05:05:53;;;;;;;17.85;5.35;;;13.00;99.90;;;;;;2089195;28;20033;-68
2021/09/24 05:06:54;;;;;;;15.05;5.05;;;13.00;99.90;;;;;;2088273;28;20045;-68
2021/09/24 05:07:54;;;;;;;21.40;4.80;;;13.00;99.90;;;;;;2088538;28;20071;-68
2021/09/24 05:08:55;;;;;;;19.88;4.97;;;13.00;99.90;;;;;;2089069;28;20046;-68
2021/09/24 05:09:55;;;;;;;16.60;5.03;;;13.00;99.90;;;;;;2096406;28;20713;-68
2021/09/24 05:10:56;;;;;;;18.67;4.85;;;13.00;99.90;;;;;;2096326;28;20052;-68
2021/09/24 05:11:56;;;;;;;18.35;5.38;;;13.00;99.90;;;;;;2089109;28;20064;-68
2021/09/24 05:12:57;;;;;;;16.63;4.78;;;13.00;99.90;;;;;;2089118;28;20040;-68
2021/09/24 05:13:58;;;;;;;13.93;4.30;;;13.00;99.90;;;;;;2089025;28;20033;-68